Dupont, Ohio
Current Conditions -  °F | °C
As of 8:10 AM on Sunday 21 Dec 2014 (Local Time) from KDFI Reporting Station
Haze Haze  
Wind Chill: 29°   Ceiling: 6000
Heat Index: 29°   Visibility: 2.5mi
Dew Point: 26°   Wind: 0mph
Humidity: 89%   Direction: NA
Pressure: 30.3"   Gusts: NA
Location:  41.06°N, 84.3°W
Report Text: KDFI 211310Z AUTO 00000KT 2 1/2SM BR OVC060 M02/M03 A3030 RMK AO2 T10171033 TSNO
Loading
Personal Weather Stations






























Interactive Weather Map New forecast layout! Learn more

10-Day Weather Forecast

Advertisements
Track Severe Weather on mobile